KHCD

Hutchinson Municipal-Butler Field Airport

Hutchinson, Minnesota, USA
METAR KHCD 230815Z AUTO 10003KT 2 1/2SM -SN BKN013 OVC020 M03/M04 A3008 RMK AO2 T10351042
Observed Flight Rules
Feb-23 @ 08:15 UTC (11 minutes ago) Instrument Flight Rules
Wind Visibility Clouds Conditions
100° at 3 knots 2 1/2 miles
  • Broken at 1,300' AGL
  • Overcast at 2,000' AGL
  • Light Snow
Temperatures Readings
Current -4°C / 25°F
Dewpoint -4°C / 25°F
Humidity 100%
Altimeter 30.08" Hg
Pressure 1019 hPa
Elevation 323
METAR KHCD 230815Z AUTO 10003KT 2 1/2SM -SN BKN013 OVC020 M03/M04 A3008 RMK AO2 T10351042
Observed Flight Rules
Feb-23 @ 08:15 UTC
(11 minutes ago)
IFR
Wind Visibility
100° at 3 knots 2 1/2 miles
Clouds
  • Broken at 1,300' AGL
  • Overcast at 2,000' AGL
Conditions
  • Light Snow
Temperature Dewpoint
-4°C / 25°F -4°C / 25°F
Humidity Altimeter Pressure
100% 30.08" Hg 1019 hPa